Time;durP1;ratioP1;P1;durP2;ratioP2;P2;SDS_P1;SDS_P2;PMS_P1;PMS_P2;Temp;Humidity;BMP_temperature;BMP_pressure;BME280_temperature;BME280_humidity;BME280_pressure;Samples;Min_cycle;Max_cycle;Signal;HPM_P1;HPM_P2
2023/05/24 00:01:48;;;;;;;27.65;9.32;;;;;;;20.20;49.70;100905.66;4994400;28;20057;-49
2023/05/24 00:04:15;;;;;;;31.42;8.70;;;;;;;20.08;48.60;100907.81;4994385;28;20037;-47
2023/05/24 00:06:43;;;;;;;26.73;8.20;;;;;;;20.02;50.03;100901.53;4993964;28;20026;-48
2023/05/24 00:09:11;;;;;;;32.08;8.82;;;;;;;19.99;49.68;100896.66;4994598;28;20030;-47
2023/05/24 00:11:37;;;;;;;39.38;9.13;;;;;;;19.93;49.40;100902.31;4993658;28;20026;-48
2023/05/24 00:14:03;;;;;;;35.08;9.20;;;;;;;19.71;50.36;100913.34;4995394;28;20037;-45
2023/05/24 00:16:30;;;;;;;36.90;9.57;;;;;;;19.10;51.25;100916.53;5010756;28;20018;-47
2023/05/24 00:18:57;;;;;;;37.85;10.10;;;;;;;19.05;51.89;100910.25;4996250;28;20030;-47
2023/05/24 00:21:23;;;;;;;43.55;9.55;;;;;;;18.83;52.53;100907.66;4998117;28;20141;-46
2023/05/24 00:23:50;;;;;;;35.60;10.18;;;;;;;18.61;53.75;100908.53;5012516;28;20018;-49
2023/05/24 00:26:17;;;;;;;36.15;9.70;;;;;;;18.41;54.00;100911.03;4993888;28;20379;-48
2023/05/24 00:28:43;;;;;;;39.33;10.48;;;;;;;18.22;54.87;100902.47;4999617;28;20040;-47
2023/05/24 00:31:09;;;;;;;43.63;10.13;;;;;;;18.02;54.91;100894.91;4996979;28;20049;-49
2023/05/24 00:33:36;;;;;;;41.47;10.30;;;;;;;18.30;55.16;100904.69;5001588;28;20028;-47
2023/05/24 00:36:02;;;;;;;35.13;9.50;;;;;;;18.08;54.81;100902.03;5005797;28;20129;-49
2023/05/24 00:38:28;;;;;;;37.33;9.38;;;;;;;18.02;54.87;100894.91;5013236;28;20080;-48
2023/05/24 00:40:55;;;;;;;38.35;9.55;;;;;;;17.94;55.22;100900.78;5005103;28;20091;-46
2023/05/24 00:43:22;;;;;;;34.95;10.00;;;;;;;17.88;55.91;100893.69;5013463;28;20095;-49
2023/05/24 00:45:54;;;;;;;36.30;10.20;;;;;;;17.76;55.92;100903.81;5012935;28;20474;-46
2023/05/24 00:48:22;;;;;;;41.42;11.38;;;;;;;17.77;56.87;100889.22;5016053;28;20025;-49
2023/05/24 00:50:48;;;;;;;34.85;9.98;;;;;;;17.61;57.16;100907.94;5029896;28;20049;-46
2023/05/24 00:53:15;;;;;;;41.17;9.90;;;;;;;17.53;57.75;100902.94;5012745;28;20470;-45
2023/05/24 00:55:41;;;;;;;45.20;11.20;;;;;;;17.43;57.80;100900.09;5014099;28;20033;-46
2023/05/24 00:58:07;;;;;;;38.47;10.25;;;;;;;17.38;57.83;100913.59;5028758;28;20434;-45
2023/05/24 01:00:33;;;;;;;37.35;10.90;;;;;;;17.34;58.42;100891.63;5032133;28;20416;-47
2023/05/24 01:03:01;;;;;;;35.75;9.98;;;;;;;17.39;58.11;100894.38;5032325;28;20060;-49
2023/05/24 01:05:27;;;;;;;42.88;10.55;;;;;;;17.47;57.69;100887.72;5014191;28;20505;-46
2023/05/24 01:08:08;;;;;;;35.38;10.48;;;;;;;17.53;57.48;100886.72;5012153;28;20037;-45
2023/05/24 01:10:55;;;;;;;35.72;9.50;;;;;;;17.53;57.52;100889.41;4997576;28;20038;-49
2023/05/24 01:13:35;;;;;;;45.15;10.32;;;;;;;17.63;57.37;100889.56;4992939;28;20092;-48
2023/05/24 01:16:16;;;;;;;42.30;9.88;;;;;;;17.52;57.22;100897.78;4992047;28;20138;-48
2023/05/24 01:18:59;;;;;;;38.42;10.30;;;;;;;17.23;57.66;100884.41;4994182;28;20029;-47
2023/05/24 01:21:28;;;;;;;38.70;9.63;;;;;;;17.07;58.58;100879.84;4991998;28;20542;-45
2023/05/24 01:24:36;;;;;;;41.28;10.18;;;;;;;17.10;58.62;100877.50;5007242;28;20030;-45
2023/05/24 01:27:07;;;;;;;44.40;10.60;;;;;;;16.98;58.96;100878.63;4969820;28;20045;-48
2023/05/24 01:29:35;;;;;;;31.17;9.10;;;;;;;16.99;59.15;100882.97;4992192;28;20041;-49
2023/05/24 01:32:02;;;;;;;37.08;10.75;;;;;;;16.91;58.98;100867.16;4991089;28;20320;-50
2023/05/24 01:34:28;;;;;;;33.45;9.23;;;;;;;16.69;59.48;100875.19;5007188;28;20041;-47
2023/05/24 01:36:55;;;;;;;35.95;10.07;;;;;;;16.95;59.05;100866.44;5009824;28;20049;-45
2023/05/24 01:39:25;;;;;;;35.42;10.10;;;;;;;16.93;58.36;100863.13;5009909;28;20037;-51
2023/05/24 01:42:12;;;;;;;44.15;10.82;;;;;;;16.96;58.34;100867.25;4996686;28;20041;-46
2023/05/24 01:44:51;;;;;;;31.35;9.57;;;;;;;16.81;58.62;100873.22;5003611;28;20564;-45
2023/05/24 01:47:52;;;;;;;36.53;9.43;;;;;;;16.60;58.59;100850.44;4992139;28;20084;-46
2023/05/24 01:50:25;;;;;;;33.60;9.40;;;;;;;16.70;58.37;100864.13;5004193;28;20060;-47
2023/05/24 01:52:52;;;;;;;28.98;9.00;;;;;;;16.71;58.85;100868.50;5011351;28;20140;-44
2023/05/24 01:55:21;;;;;;;33.00;9.02;;;;;;;16.67;58.87;100869.22;5008959;28;20482;-46
2023/05/24 01:57:50;;;;;;;32.08;10.02;;;;;;;16.77;59.14;100870.22;5010694;28;20430;-48
2023/05/24 02:00:19;;;;;;;38.28;9.40;;;;;;;17.04;58.24;100867.63;5011092;28;20030;-50
2023/05/24 02:02:45;;;;;;;34.17;8.73;;;;;;;16.95;58.05;100874.56;5011418;28;20505;-45
2023/05/24 02:05:12;;;;;;;33.08;8.98;;;;;;;16.99;57.98;100877.56;5008953;28;20487;-51
2023/05/24 02:07:40;;;;;;;33.85;8.95;;;;;;;17.09;57.61;100873.13;4993180;28;20034;-47
2023/05/24 02:10:06;;;;;;;34.75;9.43;;;;;;;17.03;58.03;100876.81;5009654;28;20034;-43
2023/05/24 02:12:33;;;;;;;32.75;9.10;;;;;;;16.84;58.13;100872.75;4996509;28;20117;-40
2023/05/24 02:15:00;;;;;;;30.60;8.52;;;;;;;17.17;58.01;100871.09;5005254;28;20118;-43
2023/05/24 02:17:26;;;;;;;34.88;9.23;;;;;;;17.14;57.12;100872.38;4996791;28;20501;-43
2023/05/24 02:19:52;;;;;;;32.65;8.48;;;;;;;17.04;57.46;100867.63;5011112;28;20072;-41
2023/05/24 02:22:21;;;;;;;35.22;10.07;;;;;;;16.83;57.80;100876.53;4996883;28;20081;-44
2023/05/24 02:24:47;;;;;;;28.30;9.60;;;;;;;16.80;58.19;100875.13;4991883;28;20169;-42
2023/05/24 02:27:13;;;;;;;31.55;9.27;;;;;;;16.47;58.95;100883.19;4991957;28;20057;-42
2023/05/24 02:29:40;;;;;;;26.48;8.60;;;;;;;16.41;59.55;100882.28;4991987;28;20027;-41
2023/05/24 02:32:07;;;;;;;38.60;9.23;;;;;;;16.24;60.02;100878.72;4991814;28;20022;-41
2023/05/24 02:34:33;;;;;;;40.20;9.85;;;;;;;15.99;61.03;100885.31;4991948;28;20031;-42
2023/05/24 02:37:00;;;;;;;38.53;10.10;;;;;;;15.67;61.89;100881.41;4992449;28;20037;-41
2023/05/24 02:39:27;;;;;;;37.53;9.60;;;;;;;15.54;62.63;100879.75;4992147;28;20081;-41
2023/05/24 02:41:53;;;;;;;37.33;9.88;;;;;;;15.44;63.03;100888.47;4993133;28;20037;-41
2023/05/24 02:44:19;;;;;;;39.35;10.80;;;;;;;15.25;64.22;100881.56;5001618;28;20034;-43
2023/05/24 02:46:46;;;;;;;38.45;10.65;;;;;;;15.04;64.77;100889.16;5013999;28;20037;-41
2023/05/24 02:49:12;;;;;;;35.72;9.38;;;;;;;14.94;65.33;100891.66;5004795;28;20133;-41
2023/05/24 02:51:38;;;;;;;39.15;10.20;;;;;;;14.82;65.84;100900.75;5008369;28;20163;-42
2023/05/24 02:54:06;;;;;;;47.58;11.55;;;;;;;14.74;66.31;100897.34;5014779;28;20037;-42
2023/05/24 02:56:33;;;;;;;34.15;10.98;;;;;;;14.75;66.54;100900.88;5013442;28;20026;-41
2023/05/24 02:58:59;;;;;;;38.70;10.10;;;;;;;14.70;67.21;100898.06;5005480;28;20372;-42
2023/05/24 03:01:25;;;;;;;40.22;11.10;;;;;;;14.67;67.19;100899.34;5001382;28;20092;-42
2023/05/24 03:03:52;;;;;;;44.25;10.82;;;;;;;14.53;67.24;100896.03;4999115;28;20033;-42
2023/05/24 03:06:18;;;;;;;40.45;11.02;;;;;;;14.28;68.51;100895.34;4998351;28;20184;-42
2023/05/24 03:08:44;;;;;;;37.65;10.65;;;;;;;14.25;68.72;100898.47;4997846;28;20033;-41
2023/05/24 03:11:11;;;;;;;45.30;11.48;;;;;;;14.13;69.13;100897.63;5005938;28;20565;-41
2023/05/24 03:13:37;;;;;;;35.00;11.38;;;;;;;14.22;68.63;100888.19;5009836;28;20034;-41
2023/05/24 03:16:03;;;;;;;43.38;11.52;;;;;;;14.01;69.25;100886.81;5003034;28;20070;-42
2023/05/24 03:18:29;;;;;;;42.88;10.02;;;;;;;13.99;69.13;100888.88;5011355;28;20025;-41
2023/05/24 03:20:56;;;;;;;32.25;9.02;;;;;;;13.91;69.64;100892.72;5006816;28;20040;-44
2023/05/24 03:23:22;;;;;;;35.92;10.30;;;;;;;13.87;69.65;100896.91;4994385;28;20053;-42
2023/05/24 03:25:48;;;;;;;33.53;10.32;;;;;;;13.93;69.59;100901.38;5000083;28;20468;-41
2023/05/24 03:28:14;;;;;;;44.05;10.38;;;;;;;13.68;70.26;100893.44;5021793;28;20036;-43
2023/05/24 03:30:41;;;;;;;41.50;11.25;;;;;;;13.57;71.05;100890.66;5023485;28;20120;-40
2023/05/24 03:33:07;;;;;;;47.05;12.10;;;;;;;13.50;71.45;100900.69;5031989;28;20027;-41
2023/05/24 03:35:33;;;;;;;42.40;12.00;;;;;;;13.44;71.76;100918.53;5030397;28;20030;-42
2023/05/24 03:37:59;;;;;;;38.65;11.85;;;;;;;13.30;72.42;100912.47;5031958;28;20062;-42
2023/05/24 03:40:31;;;;;;;53.08;11.80;;;;;;;13.22;72.96;100915.44;5022340;28;20037;-42
2023/05/24 03:42:57;;;;;;;44.08;11.55;;;;;;;13.26;72.58;100915.81;4998882;28;20030;-42
2023/05/24 03:45:23;;;;;;;38.17;10.00;;;;;;;13.29;72.43;100923.44;4994449;28;20029;-42
2023/05/24 03:47:49;;;;;;;39.00;10.10;;;;;;;13.22;72.48;100925.38;4994397;28;20471;-44
2023/05/24 03:50:16;;;;;;;39.50;11.45;;;;;;;13.15;72.80;100920.00;4993996;28;20128;-42
2023/05/24 03:52:42;;;;;;;45.55;11.88;;;;;;;13.25;72.11;100925.75;4994168;28;20402;-43
2023/05/24 03:55:08;;;;;;;40.20;10.48;;;;;;;13.22;71.90;100910.06;4994035;28;20148;-43
2023/05/24 03:57:34;;;;;;;35.90;10.88;;;;;;;13.27;71.69;100915.59;4993787;28;20049;-42
2023/05/24 04:00:01;;;;;;;41.20;11.73;;;;;;;13.17;72.12;100917.94;4996484;28;20482;-43
2023/05/24 04:02:27;;;;;;;37.58;11.25;;;;;;;13.03;72.81;100929.84;4993612;28;20084;-42
2023/05/24 04:04:53;;;;;;;42.78;11.13;;;;;;;12.94;73.47;100937.38;4993959;28;20123;-42
2023/05/24 04:07:19;;;;;;;41.70;12.57;;;;;;;12.95;73.69;100939.00;4993879;28;20028;-42
2023/05/24 04:09:45;;;;;;;44.08;11.57;;;;;;;12.96;73.93;100948.69;4993346;28;20018;-43
2023/05/24 04:12:12;;;;;;;48.88;13.90;;;;;;;12.81;74.72;100943.66;4993554;28;20022;-42
2023/05/24 04:14:38;;;;;;;47.85;12.73;;;;;;;12.94;74.30;100943.56;5030342;28;20029;-43
2023/05/24 04:17:06;;;;;;;46.78;11.48;;;;;;;13.05;73.85;100935.84;4997771;28;20475;-42
2023/05/24 04:19:33;;;;;;;44.80;12.55;;;;;;;13.04;74.08;100950.28;4993373;28;20514;-44
2023/05/24 04:21:59;;;;;;;52.53;12.98;;;;;;;13.00;74.25;100947.22;4993008;28;20070;-43
2023/05/24 04:24:25;;;;;;;49.03;12.52;;;;;;;13.04;73.98;100937.66;4993047;28;20498;-42
2023/05/24 04:26:51;;;;;;;46.63;13.30;;;;;;;13.05;73.71;100936.66;4993362;28;20551;-44
2023/05/24 04:29:18;;;;;;;46.38;12.82;;;;;;;12.92;73.58;100939.44;4993247;28;20062;-43
2023/05/24 04:31:47;;;;;;;54.78;13.02;;;;;;;12.93;73.70;100941.88;4992873;28;20026;-43
2023/05/24 04:34:13;;;;;;;48.00;12.18;;;;;;;12.87;73.61;100941.94;5009825;28;20053;-43
2023/05/24 04:36:40;;;;;;;45.55;13.15;;;;;;;12.80;74.07;100944.69;5013952;28;20029;-43
2023/05/24 04:39:06;;;;;;;45.22;12.65;;;;;;;12.78;73.73;100935.22;5015255;28;20041;-43
2023/05/24 04:41:34;;;;;;;40.17;11.55;;;;;;;12.73;73.83;100938.56;4998947;28;20061;-44
2023/05/24 04:44:01;;;;;;;58.22;13.15;;;;;;;12.63;74.67;100939.03;4992853;28;20026;-44
2023/05/24 04:46:27;;;;;;;58.85;13.18;;;;;;;12.53;75.32;100936.00;5006894;28;20040;-42
2023/05/24 04:48:54;;;;;;;59.58;13.25;;;;;;;12.56;75.70;100945.50;5010462;28;20045;-41
2023/05/24 04:51:23;;;;;;;50.72;12.90;;;;;;;12.53;75.62;100953.97;5007531;28;20032;-41
2023/05/24 04:53:49;;;;;;;52.50;12.98;;;;;;;12.48;75.74;100959.16;5003280;28;20022;-41
2023/05/24 04:56:16;;;;;;;54.03;13.00;;;;;;;12.53;75.42;100962.00;5004013;28;20028;-41
2023/05/24 04:58:42;;;;;;;51.65;13.43;;;;;;;12.42;75.74;100967.03;4998089;28;20516;-41
2023/05/24 05:01:09;;;;;;;53.33;13.27;;;;;;;12.41;75.85;100965.38;5009458;28;20026;-41
2023/05/24 05:03:35;;;;;;;72.50;15.93;;;;;;;12.32;76.43;100961.28;5000611;28;20129;-40
2023/05/24 05:06:01;;;;;;;62.70;14.40;;;;;;;12.34;76.83;100956.56;5010794;28;20124;-41
2023/05/24 05:08:27;;;;;;;59.22;13.23;;;;;;;12.40;76.49;100961.06;5000650;28;20109;-40
2023/05/24 05:10:55;;;;;;;53.95;12.60;;;;;;;12.48;75.93;100962.66;4997882;28;20554;-42
2023/05/24 05:13:21;;;;;;;63.22;14.70;;;;;;;12.39;76.71;100972.03;4983544;28;20026;-43
2023/05/24 05:15:48;;;;;;;46.20;12.13;;;;;;;12.40;76.56;100974.47;5001779;28;20471;-42
2023/05/24 05:18:15;;;;;;;54.28;13.68;;;;;;;12.33;77.12;100975.56;5005031;28;20030;-41
2023/05/24 05:20:41;;;;;;;53.40;12.95;;;;;;;12.38;76.62;100979.25;4994923;28;20023;-45
2023/05/24 05:23:07;;;;;;;55.97;13.20;;;;;;;12.32;77.06;100980.09;4994175;28;20066;-42
2023/05/24 05:25:34;;;;;;;59.45;14.35;;;;;;;12.29;77.35;100979.72;5012498;28;20033;-42
2023/05/24 05:28:01;;;;;;;53.38;12.38;;;;;;;12.33;77.44;100987.13;5012425;28;20060;-42
2023/05/24 05:30:27;;;;;;;50.63;12.65;;;;;;;12.23;77.80;100988.63;5025143;28;20206;-41
2023/05/24 05:32:53;;;;;;;55.20;14.38;;;;;;;12.19;77.96;100990.06;5031882;28;20030;-40
2023/05/24 05:35:19;;;;;;;59.53;13.88;;;;;;;12.22;77.98;100979.75;5031895;28;20022;-43
2023/05/24 05:37:46;;;;;;;72.00;15.77;;;;;;;12.20;77.43;100987.16;5031982;28;20033;-42
2023/05/24 05:40:12;;;;;;;48.70;13.63;;;;;;;12.27;77.10;100995.19;5027747;28;20132;-41
2023/05/24 05:42:38;;;;;;;47.50;13.48;;;;;;;12.34;77.14;100988.75;4991438;28;20495;-43
2023/05/24 05:45:05;;;;;;;65.20;14.15;;;;;;;12.42;77.20;100990.38;4992510;28;20113;-42
2023/05/24 05:47:31;;;;;;;56.92;14.32;;;;;;;12.21;78.01;100993.34;4992564;28;20027;-43
2023/05/24 05:49:57;;;;;;;66.78;15.55;;;;;;;12.25;77.61;100994.59;4992089;28;20469;-42
2023/05/24 05:52:23;;;;;;;57.95;13.40;;;;;;;12.28;77.73;100989.63;4992467;28;20061;-42
2023/05/24 05:54:50;;;;;;;60.88;14.30;;;;;;;12.15;78.14;100992.34;4992460;28;20045;-43
2023/05/24 05:57:18;;;;;;;58.17;13.30;;;;;;;12.25;77.14;100989.22;4993587;28;20039;-43
2023/05/24 05:59:44;;;;;;;55.13;13.45;;;;;;;12.24;77.32;100977.66;5011377;28;20034;-42
2023/05/24 06:02:11;;;;;;;55.78;13.75;;;;;;;12.23;77.35;100985.94;5001330;28;20026;-42
2023/05/24 06:04:37;;;;;;;55.67;13.23;;;;;;;12.22;77.31;100984.28;4991872;28;20038;-41
2023/05/24 06:07:04;;;;;;;58.72;15.23;;;;;;;12.25;77.03;100979.31;5020956;28;20121;-42
2023/05/24 06:09:30;;;;;;;62.10;13.88;;;;;;;12.27;77.24;100979.06;5031153;28;20103;-41
2023/05/24 06:11:56;;;;;;;57.45;14.07;;;;;;;12.23;77.20;100962.59;5030986;28;20022;-42
2023/05/24 06:14:23;;;;;;;57.90;13.50;;;;;;;12.23;76.94;100964.47;5016785;28;20026;-42
2023/05/24 06:16:51;;;;;;;58.13;13.48;;;;;;;12.17;77.51;100966.13;4993864;28;20034;-43
2023/05/24 06:19:17;;;;;;;50.92;13.55;;;;;;;12.22;77.32;100963.63;5009032;28;20061;-42
2023/05/24 06:21:46;;;;;;;60.78;14.45;;;;;;;12.18;78.05;100965.09;5012864;28;20084;-43
2023/05/24 06:24:21;;;;;;;59.95;14.55;;;;;;;12.14;77.91;100962.00;5009878;28;20057;-40
2023/05/24 06:26:51;;;;;;;60.45;13.73;;;;;;;12.18;77.37;100966.97;5008492;28;20026;-40
2023/05/24 06:29:19;;;;;;;49.75;12.90;;;;;;;12.18;77.44;100981.19;5000129;28;20034;-41
2023/05/24 06:31:46;;;;;;;56.00;13.38;;;;;;;12.20;77.52;100984.47;5006190;28;20097;-40
2023/05/24 06:34:16;;;;;;;67.38;14.68;;;;;;;12.14;77.85;100985.34;4998939;28;20105;-41
2023/05/24 06:36:45;;;;;;;52.95;13.15;;;;;;;12.17;77.84;100981.41;5014858;28;20367;-41
2023/05/24 06:39:12;;;;;;;65.47;14.55;;;;;;;12.19;78.31;100976.66;5014894;28;20029;-43
2023/05/24 06:41:39;;;;;;;48.40;11.55;;;;;;;12.29;76.97;100977.84;5014453;28;20033;-43
2023/05/24 06:44:05;;;;;;;47.72;13.45;;;;;;;12.28;77.42;100976.19;5015072;28;20041;-42
2023/05/24 06:46:32;;;;;;;55.05;13.45;;;;;;;12.22;77.20;100970.88;5009990;28;20073;-42
2023/05/24 06:48:58;;;;;;;59.38;13.57;;;;;;;12.12;77.13;100965.94;4996216;28;20519;-44
2023/05/24 06:51:24;;;;;;;54.58;13.13;;;;;;;12.07;77.57;100971.94;4994842;28;20498;-43
2023/05/24 06:53:50;;;;;;;58.05;13.38;;;;;;;12.06;77.46;100974.84;4995439;28;20101;-43
2023/05/24 06:56:17;;;;;;;52.35;12.73;;;;;;;12.10;76.96;100976.06;4995126;28;20113;-42
2023/05/24 06:58:43;;;;;;;54.00;13.18;;;;;;;11.96;77.26;100977.16;4995035;28;20027;-43
2023/05/24 07:01:10;;;;;;;54.65;13.40;;;;;;;11.95;77.68;100957.56;4994542;28;20085;-42
2023/05/24 07:03:36;;;;;;;60.58;14.55;;;;;;;11.80;78.38;100963.13;4994871;28;20031;-41
2023/05/24 07:06:03;;;;;;;60.03;13.77;;;;;;;11.83;78.28;100943.16;4995881;28;20081;-43
2023/05/24 07:08:30;;;;;;;54.80;13.35;;;;;;;11.79;78.82;100941.91;4994930;28;20026;-44
2023/05/24 07:10:56;;;;;;;50.10;13.18;;;;;;;11.75;78.79;100936.13;4994500;28;20034;-42
2023/05/24 07:13:22;;;;;;;52.80;12.30;;;;;;;11.83;78.49;100937.81;4997777;28;20101;-43
2023/05/24 07:15:49;;;;;;;44.83;13.07;;;;;;;11.77;78.87;100954.69;5004684;28;20037;-42
2023/05/24 07:18:15;;;;;;;56.10;13.55;;;;;;;11.75;78.91;100954.91;4994689;28;20037;-44
2023/05/24 07:20:41;;;;;;;55.10;12.68;;;;;;;11.89;78.30;100964.59;5029945;28;20063;-42
2023/05/24 07:23:07;;;;;;;54.47;13.50;;;;;;;11.87;77.73;100963.13;5020418;28;20037;-42
2023/05/24 07:25:34;;;;;;;51.20;12.60;;;;;;;11.75;78.36;100970.16;5013998;28;20038;-42
2023/05/24 07:28:00;;;;;;;68.65;14.45;;;;;;;11.72;79.04;100979.47;5014107;28;20065;-41
2023/05/24 07:30:27;;;;;;;51.97;12.55;;;;;;;11.77;78.85;100985.03;5012934;28;20026;-43
2023/05/24 07:32:53;;;;;;;55.10;13.10;;;;;;;11.81;78.79;100975.53;5032035;28;20078;-42
2023/05/24 07:35:21;;;;;;;49.88;13.02;;;;;;;11.84;78.97;100979.69;5033577;28;20033;-43
2023/05/24 07:37:47;;;;;;;63.67;13.68;;;;;;;11.84;78.27;100983.19;5034013;28;20131;-42
2023/05/24 07:40:14;;;;;;;53.60;12.50;;;;;;;11.88;78.36;100979.03;5014041;28;20113;-43
2023/05/24 07:42:40;;;;;;;59.13;14.43;;;;;;;11.86;78.48;100975.72;4994099;28;20601;-44
2023/05/24 07:45:09;;;;;;;50.67;11.98;;;;;;;11.98;78.36;100981.25;4994245;28;20033;-44
2023/05/24 07:47:36;;;;;;;54.20;13.77;;;;;;;11.91;78.77;100976.97;4994061;28;20042;-41
2023/05/24 07:50:02;;;;;;;52.67;14.20;;;;;;;11.86;78.93;100974.91;4993398;28;20380;-43
2023/05/24 07:52:29;;;;;;;65.13;13.88;;;;;;;11.84;78.85;100967.09;4994050;28;20045;-44
2023/05/24 07:54:55;;;;;;;45.95;11.68;;;;;;;11.92;78.49;100967.88;4994059;28;20036;-46
2023/05/24 07:57:22;;;;;;;56.50;14.43;;;;;;;11.84;79.22;100968.94;4994656;28;20066;-42
2023/05/24 07:59:49;;;;;;;53.28;12.98;;;;;;;11.96;78.49;100974.47;4993611;28;20030;-43
2023/05/24 08:02:15;;;;;;;54.22;14.15;;;;;;;11.98;78.88;100978.56;4993602;28;20027;-42
2023/05/24 08:04:42;;;;;;;59.00;13.65;;;;;;;12.04;78.50;100983.09;4993776;28;20045;-44
2023/05/24 08:07:08;;;;;;;61.42;14.13;;;;;;;11.87;78.45;100972.00;4997909;28;20100;-43
2023/05/24 08:09:37;;;;;;;56.70;14.07;;;;;;;12.05;77.78;100970.53;5032411;28;20026;-44
2023/05/24 08:12:07;;;;;;;47.83;12.82;;;;;;;11.99;78.05;100979.41;5032886;28;20032;-43
2023/05/24 08:14:33;;;;;;;47.17;12.70;;;;;;;12.03;77.87;100972.59;5007623;28;20026;-43
2023/05/24 08:17:00;;;;;;;47.58;12.18;;;;;;;12.13;77.33;100981.00;4993397;28;20038;-42
2023/05/24 08:19:27;;;;;;;57.80;13.25;;;;;;;12.08;77.67;100978.97;4993116;28;20069;-42
2023/05/24 08:22:03;;;;;;;52.45;12.50;;;;;;;11.96;77.72;100969.94;4992832;28;20128;-42
2023/05/24 08:24:31;;;;;;;49.92;12.88;;;;;;;12.02;77.35;100968.25;5009885;28;20068;-42
2023/05/24 08:26:57;;;;;;;44.20;11.82;;;;;;;11.95;77.69;100964.78;5012996;28;20113;-43
2023/05/24 08:29:23;;;;;;;45.97;13.13;;;;;;;11.97;78.03;100968.88;5012406;28;20056;-42
2023/05/24 08:31:50;;;;;;;54.53;13.60;;;;;;;11.99;78.03;100966.81;4998399;28;20026;-42
2023/05/24 08:34:17;;;;;;;47.67;12.35;;;;;;;11.92;77.76;100968.69;4996710;28;20032;-43
2023/05/24 08:36:43;;;;;;;50.00;12.30;;;;;;;11.94;77.78;100969.34;5002877;28;20388;-43
2023/05/24 08:39:09;;;;;;;50.75;12.43;;;;;;;12.09;77.79;100961.00;5009947;28;20030;-43
2023/05/24 08:41:38;;;;;;;54.78;13.13;;;;;;;11.91;77.81;100960.88;4999679;28;20548;-42
2023/05/24 08:44:08;;;;;;;52.08;13.60;;;;;;;11.79;78.84;100969.53;5007800;28;20118;-43
2023/05/24 08:46:35;;;;;;;51.47;13.18;;;;;;;11.80;79.48;100965.81;5005583;28;20109;-42
2023/05/24 08:49:03;;;;;;;56.47;14.32;;;;;;;11.81;79.31;100964.81;5000371;28;20068;-42
2023/05/24 08:51:30;;;;;;;48.28;13.05;;;;;;;11.79;79.47;100968.72;5012303;28;20096;-42
2023/05/24 08:54:00;;;;;;;47.65;12.52;;;;;;;11.81;78.65;100967.50;5003797;28;20113;-42
2023/05/24 08:56:30;;;;;;;47.60;12.70;;;;;;;11.79;78.84;100968.72;4992712;28;20074;-42
2023/05/24 08:58:56;;;;;;;54.40;12.95;;;;;;;11.75;79.57;100957.56;4993071;28;20042;-43
2023/05/24 09:01:26;;;;;;;61.60;14.07;;;;;;;11.78;80.09;100962.53;4992513;28;20534;-42
2023/05/24 09:03:53;;;;;;;50.17;12.43;;;;;;;11.89;78.33;100955.72;4992735;28;20109;-42
2023/05/24 09:06:21;;;;;;;48.40;11.35;;;;;;;11.93;77.94;100964.97;5004085;28;20076;-43
2023/05/24 09:08:52;;;;;;;47.50;11.70;;;;;;;11.94;78.50;100955.06;5025675;28;20449;-42
2023/05/24 09:11:21;;;;;;;44.95;12.05;;;;;;;11.96;78.35;100961.06;5031965;28;20033;-43
2023/05/24 09:13:48;;;;;;;52.70;12.75;;;;;;;12.03;77.42;100968.03;5031777;28;20037;-43
2023/05/24 09:16:15;;;;;;;52.72;12.30;;;;;;;11.94;77.38;100968.47;5025596;28;20033;-44
2023/05/24 09:18:41;;;;;;;47.38;11.85;;;;;;;11.95;77.46;100975.50;5012055;28;20038;-44
2023/05/24 09:21:12;;;;;;;36.95;11.52;;;;;;;11.85;77.18;100965.22;5010592;28;20120;-42
2023/05/24 09:23:39;;;;;;;48.65;12.15;;;;;;;11.84;77.58;100956.34;4992713;28;20387;-43
2023/05/24 09:26:08;;;;;;;52.97;12.65;;;;;;;11.81;77.18;100956.75;4992464;28;20025;-44
2023/05/24 09:28:35;;;;;;;45.17;12.57;;;;;;;11.75;77.77;100956.75;4992325;28;20474;-42
2023/05/24 09:31:03;;;;;;;47.17;11.95;;;;;;;11.84;77.46;100959.03;4992148;28;20026;-43
2023/05/24 09:33:31;;;;;;;50.00;11.77;;;;;;;11.84;77.23;100951.00;4992613;28;20022;-43
2023/05/24 09:35:59;;;;;;;47.13;11.82;;;;;;;11.80;77.60;100955.09;4992204;28;20054;-42
2023/05/24 09:38:26;;;;;;;60.60;12.88;;;;;;;11.80;77.69;100957.78;4993147;28;20022;-42
2023/05/24 09:41:05;;;;;;;54.53;12.65;;;;;;;11.82;77.76;100966.44;4991868;28;20045;-41
2023/05/24 09:43:38;;;;;;;51.25;11.77;;;;;;;11.80;78.00;100981.91;5007950;28;20109;-43
2023/05/24 09:46:04;;;;;;;54.80;13.88;;;;;;;11.73;78.36;100977.59;5011955;28;20022;-42
2023/05/24 09:48:31;;;;;;;53.75;12.82;;;;;;;11.79;78.16;100974.09;4999645;28;20109;-42
2023/05/24 09:51:10;;;;;;;49.42;11.00;;;;;;;11.84;76.69;100971.63;4996130;28;20067;-42
2023/05/24 09:53:37;;;;;;;49.72;12.38;;;;;;;11.89;76.56;100991.41;4991772;28;20049;-43
2023/05/24 09:56:05;;;;;;;41.00;11.02;;;;;;;11.98;76.53;100989.31;5001315;28;20490;-45
2023/05/24 09:58:32;;;;;;;43.55;10.90;;;;;;;11.93;76.55;100988.28;5013970;28;20419;-43
2023/05/24 10:01:17;;;;;;;52.10;11.55;;;;;;;11.90;76.64;100992.25;5012224;28;20034;-42
2023/05/24 10:03:58;;;;;;;61.07;13.60;;;;;;;11.93;77.08;101004.38;5013033;28;20053;-42
2023/05/24 10:06:25;;;;;;;46.17;11.23;;;;;;;12.07;76.44;100998.78;5015580;28;20540;-42
2023/05/24 10:08:53;;;;;;;55.17;12.90;;;;;;;12.08;76.57;100996.91;5027449;28;20080;-42
2023/05/24 10:11:22;;;;;;;48.47;12.10;;;;;;;12.08;76.62;100994.25;5034942;28;20026;-43
2023/05/24 10:13:49;;;;;;;47.20;11.50;;;;;;;12.04;76.45;101001.88;5005617;28;20065;-43
2023/05/24 10:16:15;;;;;;;47.88;10.98;;;;;;;12.07;75.95;101004.16;5002205;28;20025;-43
2023/05/24 10:18:42;;;;;;;42.40;10.30;;;;;;;12.06;75.22;101015.91;5015436;28;20037;-42
2023/05/24 10:21:09;;;;;;;49.30;11.60;;;;;;;12.05;75.42;101016.97;5014843;28;20529;-42
2023/05/24 10:23:38;;;;;;;49.17;11.88;;;;;;;12.04;75.80;101014.47;5015156;28;20087;-45
2023/05/24 10:26:12;;;;;;;43.00;10.75;;;;;;;12.00;75.95;101000.66;5015166;28;20022;-43
2023/05/24 10:28:45;;;;;;;43.20;10.98;;;;;;;11.97;76.16;101002.94;5015174;28;20375;-43
2023/05/24 10:31:39;;;;;;;56.53;12.80;;;;;;;11.95;76.47;101010.38;4997960;28;20085;-42
2023/05/24 10:34:07;;;;;;;45.38;10.95;;;;;;;11.95;76.42;101005.03;4993563;28;20057;-42
2023/05/24 10:36:34;;;;;;;54.35;11.70;;;;;;;11.94;76.61;100998.84;4995618;28;20034;-44
2023/05/24 10:39:01;;;;;;;49.75;11.73;;;;;;;11.93;76.77;100997.16;4995265;28;20026;-42
2023/05/24 10:41:27;;;;;;;49.13;12.05;;;;;;;11.94;77.10;101006.03;4995159;28;20116;-42
2023/05/24 10:43:53;;;;;;;54.75;12.13;;;;;;;11.94;77.27;100997.97;4995105;28;20309;-42
2023/05/24 10:46:21;;;;;;;47.42;11.02;;;;;;;11.91;77.48;100993.06;4996346;28;20100;-42
2023/05/24 10:49:01;;;;;;;43.78;10.80;;;;;;;11.83;77.37;101005.69;4994828;28;20034;-42
2023/05/24 10:51:31;;;;;;;47.80;11.40;;;;;;;11.80;77.69;100997.19;4995126;28;20105;-42
2023/05/24 10:54:09;;;;;;;43.55;12.27;;;;;;;11.95;77.05;100996.97;4995061;28;20122;-42
2023/05/24 10:56:41;;;;;;;51.95;11.32;;;;;;;11.93;77.33;101004.38;5002445;28;20105;-42
2023/05/24 10:59:07;;;;;;;48.80;12.38;;;;;;;11.92;77.76;101000.88;5014369;28;20022;-42
2023/05/24 11:01:35;;;;;;;48.78;11.45;;;;;;;11.74;78.33;100985.44;5010422;28;20065;-43
2023/05/24 11:04:15;;;;;;;42.55;10.60;;;;;;;11.78;78.23;100984.00;5009411;28;20036;-43
2023/05/24 11:07:08;;;;;;;49.90;11.25;;;;;;;11.86;77.31;100974.91;5009921;28;20037;-42
2023/05/24 11:09:51;;;;;;;48.78;11.93;;;;;;;11.81;78.09;100972.84;5028734;28;20042;-42
2023/05/24 11:12:22;;;;;;;47.10;11.02;;;;;;;11.81;78.42;100972.84;5011624;28;20483;-42
2023/05/24 11:14:51;;;;;;;42.38;11.07;;;;;;;11.75;78.23;100962.94;5012237;28;20064;-43